CGF3 weather

CLOSED Guliker Field
Hague, Saskatchewan, Canada

Public forecast

Using degrees Celsius for public forecast. Weather courtesy of forecast.io.

Closest aviation weather report (METAR) to Guliker Field

Closest report is Saskatoon John G. Diefenbaker International Airport, 24.6 nm (45.6 km) SSW. Retrieved 2020/05/27 14:00 UTC (43 seconds ago):

CYXE 271400Z 29023G31KT 15SM SKC 12/03 A2982 RMK SLP110 DENSITY ALT 1800FT

Closest aviation forecast (TAF) to Guliker Field

Closest forecast is Saskatoon John G. Diefenbaker International Airport, 24.6 nm (45.6 km) SSW. Retrieved 2020/05/27 12:42 UTC (1 hour ago):

TAF TAF CYXE 271138Z 2712/2812 25008KT P6SM FEW080 BECMG 2713/2715 29020G30KT FM271800 29025G35KT P6SM VCSH BKN060 BECMG 2801/2803 31012KT FM280800 32008KT P6SM SCT020 BKN040 RMK NXT FCST BY 271800Z